createdAt,value
2024-03-10T00:01:20.981Z,99.99
2024-03-10T00:03:51.677Z,99.99
2024-03-10T00:06:22.417Z,99.99
2024-03-10T00:08:53.046Z,99.99
2024-03-10T00:11:23.775Z,99.99
2024-03-10T00:13:54.549Z,99.99
2024-03-10T00:16:25.018Z,99.99
2024-03-10T00:18:55.205Z,99.99
2024-03-10T00:21:27.043Z,99.99
2024-03-10T00:23:58.457Z,99.99
2024-03-10T00:26:29.853Z,99.99
2024-03-10T00:29:00.270Z,99.99
2024-03-10T00:31:31.616Z,99.99
2024-03-10T00:34:02.725Z,99.99
2024-03-10T00:36:33.297Z,99.99
2024-03-10T00:39:04.279Z,99.99
2024-03-10T00:41:34.594Z,99.99
2024-03-10T00:44:05.427Z,99.99
2024-03-10T00:46:36.304Z,99.99
2024-03-10T00:49:06.432Z,99.99
2024-03-10T00:51:37.602Z,99.99
2024-03-10T00:54:08.405Z,99.99
2024-03-10T00:56:38.976Z,99.99
2024-03-10T00:59:09.195Z,99.99
2024-03-10T01:01:41.669Z,99.99
2024-03-10T01:04:12.790Z,99.99
2024-03-10T01:06:44.826Z,99.99
2024-03-10T01:09:20.678Z,99.99
2024-03-10T01:11:51.172Z,99.99
2024-03-10T01:14:21.904Z,99.99
2024-03-10T01:16:52.516Z,99.99
2024-03-10T01:19:22.897Z,99.99
2024-03-10T01:21:53.397Z,99.99
2024-03-10T01:24:24.296Z,99.99
2024-03-10T01:26:55.796Z,99.99
2024-03-10T01:29:26.265Z,99.99
2024-03-10T01:31:58.106Z,99.99
2024-03-10T01:34:28.774Z,99.99
2024-03-10T01:36:59.856Z,99.99
2024-03-10T01:39:31.151Z,99.99
2024-03-10T01:42:02.040Z,99.99
2024-03-10T01:44:32.930Z,99.99
2024-03-10T01:47:04.467Z,99.99
2024-03-10T01:49:36.236Z,99.99
2024-03-10T01:52:06.986Z,99.99
2024-03-10T01:54:39.895Z,99.99
2024-03-10T01:57:11.802Z,99.99
2024-03-10T01:59:42.065Z,99.99
2024-03-10T02:02:12.437Z,99.99
2024-03-10T02:04:43.669Z,99.99
2024-03-10T02:07:14.497Z,99.99
2024-03-10T02:09:47.208Z,99.99
2024-03-10T02:12:18.119Z,99.99
2024-03-10T02:15:05.790Z,99.99
2024-03-10T02:17:39.437Z,99.99
2024-03-10T02:20:22.358Z,99.99
2024-03-10T02:22:54.907Z,99.99
2024-03-10T02:25:26.636Z,99.99
2024-03-10T02:28:01.842Z,99.99
2024-03-10T02:30:33.932Z,99.99
2024-03-10T02:33:22.580Z,99.99
2024-03-10T02:36:11.583Z,99.99
2024-03-10T02:39:00.827Z,99.99
2024-03-10T02:41:59.998Z,99.99
2024-03-10T02:44:48.596Z,99.99
2024-03-10T02:47:20.442Z,99.99
2024-03-10T02:49:52.494Z,99.99
2024-03-10T02:52:22.713Z,99.99
2024-03-10T02:54:52.747Z,99.99
2024-03-10T02:57:24.674Z,99.99
2024-03-10T02:59:56.470Z,99.99
2024-03-10T03:02:27.587Z,99.99
2024-03-10T03:04:58.018Z,99.99
2024-03-10T03:07:29.778Z,99.99
2024-03-10T03:10:01.474Z,99.99
2024-03-10T03:12:32.464Z,99.99
2024-03-10T03:15:02.607Z,99.99
2024-03-10T03:17:34.193Z,99.99
2024-03-10T03:20:18.323Z,99.99
2024-03-10T03:22:49.402Z,99.99
2024-03-10T03:25:20.198Z,99.99
2024-03-10T03:27:52.714Z,99.99
2024-03-10T03:30:24.979Z,99.99
2024-03-10T03:32:57.039Z,99.99
2024-03-10T03:35:27.534Z,99.99
2024-03-10T03:37:57.902Z,99.99
2024-03-10T03:40:28.811Z,99.99
2024-03-10T03:42:59.217Z,99.99
2024-03-10T03:45:30.286Z,99.99
2024-03-10T03:48:01.607Z,99.99
2024-03-10T03:50:34.269Z,99.99
2024-03-10T03:53:04.432Z,99.99
2024-03-10T03:55:34.429Z,99.99
2024-03-10T03:58:05.488Z,99.99
2024-03-10T04:00:36.042Z,99.99
2024-03-10T04:03:06.816Z,99.99
2024-03-10T04:05:36.754Z,99.99
2024-03-10T04:08:08.833Z,99.99
2024-03-10T04:10:39.402Z,99.99
2024-03-10T04:13:09.553Z,99.99
2024-03-10T04:15:40.286Z,99.99
2024-03-10T04:18:11.241Z,99.99
2024-03-10T04:20:44.152Z,99.99
2024-03-10T04:23:14.865Z,99.99
2024-03-10T04:25:45.094Z,99.99
2024-03-10T04:28:16.272Z,99.99
2024-03-10T04:30:47.826Z,99.99
2024-03-10T04:33:19.483Z,99.99
2024-03-10T04:35:49.668Z,99.99
2024-03-10T04:38:20.096Z,99.99
2024-03-10T04:40:50.947Z,99.99
2024-03-10T04:43:23.657Z,99.99
2024-03-10T04:45:55.458Z,99.99
2024-03-10T04:48:25.782Z,99.99
2024-03-10T04:50:56.128Z,99.99
2024-03-10T04:53:27.320Z,99.99
2024-03-10T04:55:58.099Z,99.99
2024-03-10T04:58:31.108Z,99.99
2024-03-10T05:01:02.984Z,99.99
2024-03-10T05:03:33.533Z,99.99
2024-03-10T05:06:03.342Z,99.99
2024-03-10T05:08:34.112Z,99.99
2024-03-10T05:11:06.082Z,99.99
2024-03-10T05:13:40.386Z,99.99
2024-03-10T05:16:10.944Z,99.99
2024-03-10T05:18:42.929Z,99.99
2024-03-10T05:21:13.263Z,99.99
2024-03-10T05:23:43.784Z,99.99
2024-03-10T05:26:14.484Z,99.99
2024-03-10T05:28:44.340Z,99.99
2024-03-10T05:31:34.215Z,99.99
2024-03-10T05:34:05.610Z,99.99
2024-03-10T05:36:35.812Z,99.99
2024-03-10T05:39:06.468Z,99.99
2024-03-10T05:41:37.623Z,99.99
2024-03-10T05:44:07.714Z,99.99
2024-03-10T05:46:38.895Z,99.99
2024-03-10T05:49:10.705Z,99.99
2024-03-10T05:51:41.022Z,99.99
2024-03-10T05:54:12.461Z,99.99
2024-03-10T05:56:43.551Z,99.99
2024-03-10T05:59:13.543Z,99.99
2024-03-10T06:01:44.875Z,99.99
2024-03-10T06:04:15.412Z,99.99
2024-03-10T06:06:45.739Z,99.99
2024-03-10T06:09:17.220Z,99.99
2024-03-10T06:11:47.536Z,99.99
2024-03-10T06:14:18.560Z,99.99
2024-03-10T06:16:49.349Z,99.99
2024-03-10T06:19:37.301Z,99.99
2024-03-10T06:22:26.155Z,99.99
2024-03-10T06:25:14.891Z,99.99
2024-03-10T06:27:45.336Z,99.99
2024-03-10T06:30:15.547Z,99.99
2024-03-10T06:32:45.761Z,99.99
2024-03-10T06:35:16.253Z,99.99
2024-03-10T06:37:50.682Z,99.99
2024-03-10T06:40:23.882Z,99.99
2024-03-10T06:42:54.331Z,99.99
2024-03-10T06:45:25.152Z,99.99
2024-03-10T06:47:56.757Z,99.99
2024-03-10T06:50:30.184Z,99.99
2024-03-10T06:53:00.487Z,99.99
2024-03-10T06:55:30.479Z,99.99
2024-03-10T06:58:00.987Z,99.99
2024-03-10T07:00:32.046Z,99.99
2024-03-10T07:03:02.745Z,99.99
2024-03-10T07:05:32.921Z,99.99
2024-03-10T07:08:05.397Z,99.99
2024-03-10T07:10:40.262Z,99.99
2024-03-10T07:13:11.007Z,99.99
2024-03-10T07:15:41.199Z,99.99
2024-03-10T07:18:12.625Z,99.99
2024-03-10T07:20:45.377Z,99.99
2024-03-10T07:23:16.520Z,99.99
2024-03-10T07:25:46.640Z,99.99
2024-03-10T07:28:17.053Z,99.99
2024-03-10T07:30:47.358Z,99.99
2024-03-10T07:33:18.256Z,99.99
2024-03-10T07:35:49.453Z,99.99
2024-03-10T07:38:19.934Z,99.99
2024-03-10T07:40:54.311Z,99.99
2024-03-10T07:43:26.866Z,99.99
2024-03-10T07:45:57.683Z,99.99
2024-03-10T07:48:27.572Z,99.99
2024-03-10T07:50:57.922Z,99.99
2024-03-10T07:53:29.428Z,99.99
2024-03-10T07:56:04.164Z,99.99
2024-03-10T07:58:34.797Z,99.99
2024-03-10T08:01:06.091Z,99.99
2024-03-10T08:03:36.949Z,99.99
2024-03-10T08:06:10.163Z,99.99
2024-03-10T08:08:41.035Z,99.99
2024-03-10T08:11:11.954Z,99.99
2024-03-10T08:13:43.454Z,99.99
2024-03-10T08:16:15.002Z,99.99
2024-03-10T08:18:48.072Z,99.99
2024-03-10T08:21:20.819Z,99.99
2024-03-10T08:23:50.747Z,99.99
2024-03-10T08:26:21.872Z,99.99
2024-03-10T08:28:52.320Z,99.99
2024-03-10T08:31:22.217Z,99.99
2024-03-10T08:33:52.464Z,99.99
2024-03-10T08:36:23.101Z,99.99
2024-03-10T08:38:54.273Z,99.99
2024-03-10T08:41:24.414Z,99.99
2024-03-10T08:43:56.194Z,99.99
2024-03-10T08:46:26.712Z,99.99
2024-03-10T08:48:57.703Z,99.99
2024-03-10T08:51:30.203Z,99.99
2024-03-10T08:54:00.418Z,99.99
2024-03-10T08:56:30.373Z,99.99
2024-03-10T08:59:01.113Z,99.99
2024-03-10T09:01:31.708Z,99.99
2024-03-10T09:04:04.862Z,99.99
2024-03-10T09:06:35.944Z,99.99
2024-03-10T09:09:10.596Z,99.99
2024-03-10T09:11:41.930Z,99.99
2024-03-10T09:14:11.958Z,99.99
2024-03-10T09:16:41.893Z,99.99
2024-03-10T09:19:13.418Z,99.99
2024-03-10T09:21:45.830Z,99.99
2024-03-10T09:24:17.105Z,99.99
2024-03-10T09:26:47.359Z,99.99
2024-03-10T09:29:18.591Z,99.99
2024-03-10T09:31:49.384Z,99.99
2024-03-10T09:34:19.320Z,99.99
2024-03-10T09:36:49.877Z,99.99
2024-03-10T09:39:21.949Z,99.99
2024-03-10T09:41:53.455Z,99.99
2024-03-10T09:44:26.737Z,99.99
2024-03-10T09:46:57.966Z,99.99
2024-03-10T09:49:28.062Z,99.99
2024-03-10T09:51:59.197Z,99.99
2024-03-10T09:54:30.380Z,99.99
2024-03-10T09:57:00.212Z,99.99
2024-03-10T09:59:46.640Z,99.99
2024-03-10T10:02:30.714Z,99.99
2024-03-10T10:05:05.193Z,99.99
2024-03-10T10:07:36.841Z,99.99
2024-03-10T10:10:08.852Z,99.99
2024-03-10T10:12:39.876Z,99.99
2024-03-10T10:15:11.055Z,99.99
2024-03-10T10:17:42.974Z,99.99
2024-03-10T10:20:14.382Z,99.99
2024-03-10T10:22:44.944Z,99.99
2024-03-10T10:25:16.510Z,99.99
2024-03-10T10:27:54.206Z,99.99
2024-03-10T10:30:30.655Z,99.99
2024-03-10T10:33:07.250Z,99.99
2024-03-10T10:35:44.986Z,99.99
2024-03-10T10:38:16.201Z,99.99
2024-03-10T10:40:53.712Z,99.99
2024-03-10T10:43:25.341Z,99.99
2024-03-10T10:45:55.607Z,99.99
2024-03-10T10:48:25.947Z,99.99
2024-03-10T10:50:56.304Z,99.99
2024-03-10T10:53:28.111Z,99.99
2024-03-10T10:56:01.481Z,99.99
2024-03-10T10:58:36.413Z,99.99
2024-03-10T11:01:07.482Z,99.99
2024-03-10T11:03:39.793Z,99.99
2024-03-10T11:06:11.419Z,99.99
2024-03-10T11:08:44.182Z,98.37
2024-03-10T11:11:19.433Z,96.79
2024-03-10T11:13:52.404Z,95.88
2024-03-10T11:16:28.188Z,95.73
2024-03-10T11:19:16.228Z,95.22
2024-03-10T11:21:53.539Z,93.86
2024-03-10T11:24:29.218Z,93.63
2024-03-10T11:27:22.990Z,93.78
2024-03-10T11:29:53.992Z,93.58
2024-03-10T11:32:34.532Z,92.39
2024-03-10T11:35:09.851Z,92.40
2024-03-10T11:37:40.649Z,91.95
2024-03-10T11:40:18.628Z,91.56
2024-03-10T11:42:50.520Z,90.02
2024-03-10T11:45:21.596Z,88.15
2024-03-10T11:47:52.441Z,87.74
2024-03-10T11:50:22.457Z,88.20
2024-03-10T11:52:53.191Z,87.16
2024-03-10T11:55:24.350Z,86.42
2024-03-10T11:57:56.215Z,85.98
2024-03-10T12:00:28.676Z,87.63
2024-03-10T12:02:59.294Z,87.72
2024-03-10T12:05:30.987Z,87.84
2024-03-10T12:08:02.838Z,88.64
2024-03-10T12:10:35.252Z,89.38
2024-03-10T12:13:07.845Z,90.93
2024-03-10T12:15:39.692Z,91.57
2024-03-10T12:18:10.768Z,91.78
2024-03-10T12:20:41.452Z,92.36
2024-03-10T12:23:12.859Z,93.22
2024-03-10T12:25:44.782Z,93.66
2024-03-10T12:28:16.047Z,94.13
2024-03-10T12:30:47.497Z,94.34
2024-03-10T12:33:17.967Z,94.29
2024-03-10T12:35:48.356Z,94.32
2024-03-10T12:38:18.893Z,93.89
2024-03-10T12:40:50.277Z,93.31
2024-03-10T12:43:20.685Z,92.92
2024-03-10T12:45:50.826Z,91.46
2024-03-10T12:48:21.556Z,91.51
2024-03-10T12:50:51.961Z,91.82
2024-03-10T12:53:23.730Z,91.93
2024-03-10T12:55:54.059Z,91.14
2024-03-10T12:58:24.126Z,91.41
2024-03-10T13:00:55.788Z,92.19
2024-03-10T13:03:26.383Z,91.76
2024-03-10T13:05:58.517Z,90.73
2024-03-10T13:08:30.531Z,90.81
2024-03-10T13:11:01.715Z,91.63
2024-03-10T13:13:32.593Z,91.12
2024-03-10T13:16:02.936Z,90.83
2024-03-10T13:18:33.269Z,91.50
2024-03-10T13:21:04.851Z,91.99
2024-03-10T13:23:36.411Z,92.41
2024-03-10T13:26:07.309Z,92.37
2024-03-10T13:28:37.916Z,91.46
2024-03-10T13:31:07.872Z,91.41
2024-03-10T13:33:39.890Z,91.06
2024-03-10T13:36:17.471Z,90.91
2024-03-10T13:38:50.618Z,90.81
2024-03-10T13:41:20.887Z,90.51
2024-03-10T13:43:51.308Z,89.60
2024-03-10T13:46:22.153Z,90.33
2024-03-10T13:48:52.171Z,89.96
2024-03-10T13:51:23.089Z,88.37
2024-03-10T13:53:54.699Z,89.02
2024-03-10T13:56:26.133Z,87.62
2024-03-10T13:58:58.438Z,87.10
2024-03-10T14:01:28.987Z,87.13
2024-03-10T14:03:59.791Z,87.26
2024-03-10T14:06:30.848Z,86.43
2024-03-10T14:09:01.298Z,83.52
2024-03-10T14:11:31.745Z,84.50
2024-03-10T14:14:03.431Z,81.61
2024-03-10T14:16:35.023Z,83.91
2024-03-10T14:19:05.346Z,83.52
2024-03-10T14:21:39.830Z,83.54
2024-03-10T14:24:11.831Z,83.73
2024-03-10T14:26:42.406Z,82.62
2024-03-10T14:29:13.033Z,81.64
2024-03-10T14:31:43.893Z,83.73
2024-03-10T14:34:14.546Z,79.06
2024-03-10T14:36:45.055Z,78.39
2024-03-10T14:39:18.880Z,77.28
2024-03-10T14:41:49.246Z,76.71
2024-03-10T14:44:19.902Z,75.86
2024-03-10T14:46:50.912Z,79.92
2024-03-10T14:49:21.225Z,80.87
2024-03-10T14:51:53.130Z,80.93
2024-03-10T14:54:24.652Z,81.28
2024-03-10T14:56:54.933Z,81.13
2024-03-10T14:59:25.205Z,83.62
2024-03-10T15:01:55.119Z,81.49
2024-03-10T15:04:25.404Z,78.11
2024-03-10T15:06:57.933Z,77.23
2024-03-10T15:09:29.634Z,77.77
2024-03-10T15:11:59.503Z,75.77
2024-03-10T15:14:31.173Z,74.21
2024-03-10T15:17:01.961Z,74.78
2024-03-10T15:19:34.547Z,72.69
2024-03-10T15:22:05.044Z,73.50
2024-03-10T15:24:37.790Z,72.71
2024-03-10T15:27:09.534Z,71.97
2024-03-10T15:29:40.135Z,75.21
2024-03-10T15:32:10.705Z,74.35
2024-03-10T15:34:42.382Z,78.11
2024-03-10T15:37:14.343Z,79.13
2024-03-10T15:39:49.051Z,78.49
2024-03-10T15:42:20.704Z,79.99
2024-03-10T15:44:50.768Z,75.06
2024-03-10T15:47:23.095Z,74.29
2024-03-10T15:49:54.797Z,73.33
2024-03-10T15:52:26.741Z,72.10
2024-03-10T15:54:57.634Z,73.33
2024-03-10T15:57:28.400Z,69.90
2024-03-10T15:59:59.282Z,72.75
2024-03-10T16:02:29.370Z,72.84
2024-03-10T16:04:59.930Z,74.97
2024-03-10T16:07:30.646Z,75.27
2024-03-10T16:10:00.957Z,75.66
2024-03-10T16:12:34.177Z,77.30
2024-03-10T16:15:08.438Z,73.54
2024-03-10T16:17:39.946Z,71.73
2024-03-10T16:20:17.054Z,69.12
2024-03-10T16:22:47.402Z,71.25
2024-03-10T16:25:22.085Z,70.55
2024-03-10T16:27:54.531Z,72.00
2024-03-10T16:30:25.405Z,70.95
2024-03-10T16:32:57.035Z,71.41
2024-03-10T16:35:28.322Z,74.65
2024-03-10T16:38:00.403Z,70.92
2024-03-10T16:40:30.947Z,69.16
2024-03-10T16:43:01.296Z,66.74
2024-03-10T16:45:31.637Z,67.54
2024-03-10T16:48:02.999Z,64.06
2024-03-10T16:50:35.675Z,64.24
2024-03-10T16:53:08.393Z,67.32
2024-03-10T16:55:42.521Z,72.32
2024-03-10T16:58:13.697Z,70.45
2024-03-10T17:00:44.560Z,71.87
2024-03-10T17:03:18.273Z,72.42
2024-03-10T17:05:56.263Z,69.35
2024-03-10T17:08:27.136Z,68.28
2024-03-10T17:10:58.073Z,67.77
2024-03-10T17:13:29.228Z,64.56
2024-03-10T17:16:00.151Z,64.64
2024-03-10T17:18:31.509Z,66.84
2024-03-10T17:21:02.866Z,69.23
2024-03-10T17:23:33.007Z,72.96
2024-03-10T17:26:03.894Z,74.93
2024-03-10T17:28:35.410Z,72.23
2024-03-10T17:31:06.376Z,71.36
2024-03-10T17:33:37.140Z,70.91
2024-03-10T17:36:07.993Z,71.55
2024-03-10T17:38:38.485Z,71.67
2024-03-10T17:41:09.541Z,71.06
2024-03-10T17:43:40.429Z,71.55
2024-03-10T17:46:10.442Z,72.17
2024-03-10T17:48:41.559Z,70.06
2024-03-10T17:51:12.277Z,70.18
2024-03-10T17:53:44.732Z,70.90
2024-03-10T17:56:17.996Z,74.61
2024-03-10T17:58:50.547Z,72.26
2024-03-10T18:01:21.961Z,71.70
2024-03-10T18:03:53.782Z,71.88
2024-03-10T18:06:23.790Z,69.80
2024-03-10T18:08:54.978Z,70.40
2024-03-10T18:11:26.817Z,70.35
2024-03-10T18:13:58.402Z,69.96
2024-03-10T18:16:29.594Z,70.27
2024-03-10T18:19:00.809Z,68.64
2024-03-10T18:21:32.009Z,73.32
2024-03-10T18:24:03.435Z,74.20
2024-03-10T18:26:33.824Z,71.81
2024-03-10T18:29:07.809Z,71.73
2024-03-10T18:31:41.933Z,73.63
2024-03-10T18:34:12.806Z,73.28
2024-03-10T18:36:42.896Z,72.27
2024-03-10T18:39:14.410Z,72.28
2024-03-10T18:41:45.300Z,70.75
2024-03-10T18:44:15.930Z,70.86
2024-03-10T18:46:46.041Z,70.72
2024-03-10T18:49:16.054Z,70.07
2024-03-10T18:51:46.317Z,69.22
2024-03-10T18:54:18.377Z,69.44
2024-03-10T18:56:49.168Z,69.70
2024-03-10T18:59:21.427Z,71.89
2024-03-10T19:01:52.587Z,71.06
2024-03-10T19:04:23.296Z,72.57
2024-03-10T19:06:54.355Z,71.74
2024-03-10T19:09:25.429Z,73.02
2024-03-10T19:11:56.653Z,71.74
2024-03-10T19:14:28.226Z,69.84
2024-03-10T19:17:00.758Z,72.77
2024-03-10T19:19:31.992Z,72.91
2024-03-10T19:22:03.435Z,73.84
2024-03-10T19:24:34.368Z,73.77
2024-03-10T19:27:05.389Z,71.57
2024-03-10T19:29:35.991Z,70.05
2024-03-10T19:32:10.007Z,72.42
2024-03-10T19:34:40.686Z,72.95
2024-03-10T19:37:12.566Z,72.63
2024-03-10T19:39:42.740Z,71.93
2024-03-10T19:42:12.867Z,73.95
2024-03-10T19:44:48.131Z,74.34
2024-03-10T19:47:20.399Z,75.54
2024-03-10T19:49:51.391Z,74.60
2024-03-10T19:52:21.212Z,76.37
2024-03-10T19:54:51.457Z,76.62
2024-03-10T19:57:23.852Z,76.22
2024-03-10T19:59:54.472Z,76.43
2024-03-10T20:02:24.699Z,77.09
2024-03-10T20:04:57.873Z,76.49
2024-03-10T20:07:30.543Z,74.37
2024-03-10T20:10:01.206Z,74.48
2024-03-10T20:12:34.060Z,73.70
2024-03-10T20:15:05.551Z,76.27
2024-03-10T20:17:37.486Z,76.66
2024-03-10T20:20:10.505Z,78.53
2024-03-10T20:22:41.472Z,78.57
2024-03-10T20:25:12.028Z,79.61
2024-03-10T20:27:42.451Z,80.14
2024-03-10T20:30:19.253Z,80.38
2024-03-10T20:32:49.960Z,80.90
2024-03-10T20:35:22.218Z,80.97
2024-03-10T20:37:52.571Z,80.67
2024-03-10T20:40:23.004Z,81.42
2024-03-10T20:42:53.623Z,81.24
2024-03-10T20:45:24.696Z,81.09
2024-03-10T20:47:56.587Z,80.89
2024-03-10T20:50:27.700Z,81.17
2024-03-10T20:52:58.427Z,82.11
2024-03-10T20:55:28.813Z,82.85
2024-03-10T20:57:58.775Z,82.79
2024-03-10T21:00:30.024Z,83.37
2024-03-10T21:03:01.847Z,83.11
2024-03-10T21:05:31.731Z,83.43
2024-03-10T21:08:02.695Z,83.67
2024-03-10T21:10:33.573Z,83.06
2024-03-10T21:13:05.300Z,83.02
2024-03-10T21:15:37.233Z,83.20
2024-03-10T21:18:08.607Z,83.70
2024-03-10T21:20:39.844Z,83.74
2024-03-10T21:23:11.206Z,84.05
2024-03-10T21:25:42.808Z,84.40
2024-03-10T21:28:16.203Z,84.42
2024-03-10T21:30:46.682Z,84.55
2024-03-10T21:33:16.935Z,84.59
2024-03-10T21:35:48.477Z,84.75
2024-03-10T21:38:20.656Z,85.24
2024-03-10T21:40:51.699Z,85.56
2024-03-10T21:43:23.338Z,85.53
2024-03-10T21:45:53.648Z,85.63
2024-03-10T21:48:24.208Z,86.25
2024-03-10T21:50:55.313Z,86.54
2024-03-10T21:53:26.685Z,86.52
2024-03-10T21:55:57.208Z,86.98
2024-03-10T21:58:28.128Z,87.51
2024-03-10T22:00:58.895Z,87.73
2024-03-10T22:03:32.734Z,87.88
2024-03-10T22:06:04.229Z,88.00
2024-03-10T22:08:35.141Z,88.39
2024-03-10T22:11:06.798Z,88.62
2024-03-10T22:13:38.942Z,89.07
2024-03-10T22:16:11.514Z,89.40
2024-03-10T22:18:41.747Z,89.29
2024-03-10T22:21:13.559Z,89.29
2024-03-10T22:23:45.064Z,89.76
2024-03-10T22:26:15.782Z,90.33
2024-03-10T22:28:46.363Z,90.94
2024-03-10T22:31:17.355Z,91.38
2024-03-10T22:33:48.286Z,91.41
2024-03-10T22:36:18.584Z,91.58
2024-03-10T22:38:49.652Z,91.81
2024-03-10T22:41:20.569Z,92.21
2024-03-10T22:43:51.263Z,92.17
2024-03-10T22:46:22.584Z,92.57
2024-03-10T22:48:52.633Z,92.57
2024-03-10T22:51:23.622Z,92.60
2024-03-10T22:53:55.177Z,92.97
2024-03-10T22:56:26.223Z,93.23
2024-03-10T22:58:56.310Z,93.66
2024-03-10T23:01:29.728Z,93.85
2024-03-10T23:04:00.508Z,94.00
2024-03-10T23:06:31.250Z,94.04
2024-03-10T23:09:01.466Z,93.89
2024-03-10T23:11:31.948Z,94.12
2024-03-10T23:14:02.738Z,94.49
2024-03-10T23:16:32.688Z,94.59
2024-03-10T23:19:03.625Z,94.72
2024-03-10T23:21:36.506Z,94.88
2024-03-10T23:24:11.718Z,95.06
2024-03-10T23:26:42.299Z,95.11
2024-03-10T23:29:12.592Z,95.39
2024-03-10T23:31:46.681Z,95.81
2024-03-10T23:34:18.582Z,96.11
2024-03-10T23:36:49.186Z,96.45
2024-03-10T23:39:23.061Z,96.62
2024-03-10T23:41:54.450Z,96.88
2024-03-10T23:44:26.483Z,97.25
2024-03-10T23:46:56.946Z,97.35
2024-03-10T23:49:29.133Z,97.56
2024-03-10T23:52:00.441Z,97.72
2024-03-10T23:54:31.029Z,97.73
2024-03-10T23:57:02.702Z,97.86
2024-03-10T23:59:34.032Z,98.18
